• Join FlightAware (Why Join?)
  • Login
  • US Flag 
11:03AM EDT


 

Airport Tracker/Info


-or-


 

Live Flight TrackerFlight Track Log ✈ EJA929 ✈ 27-Jul-2013 ✈ KPDX - KSNA

Flight Track Log - Related Links

Times and Time Zones

All times are in EDT time to prevent confusion due to time zone crossing. See the EJA929 flight status page for this flight to view local times or setup timezone preferences in your user account.

Time Position Orientation Groundspeed Altitude Reporting Facility
EDT Latitude Longitude Course Direction KTS MPH feet Rate Location/Type
11:22AM 45.5967 -122.6000 299° West 207 238 800  Level Seattle Center
11:22AM 45.6111 -122.6375 299° West 207 238 2,700 3,720 Climbing Seattle Center
11:23AM 45.6292 -122.6856 298° West 246 283 5,000 4,200 Climbing Seattle Center
11:23AM 45.6233 -122.7281 259° West 255 293 7,000 4,020 Climbing Seattle Center
11:24AM 45.5514 -122.7125 171° South 314 361 11,100 3,480 Climbing Seattle Center
11:26AM 45.4956 -122.6100 128° Southeast 327 376 14,100 2,400 Climbing Seattle Center
11:27AM 45.4389 -122.4997 126° Southeast 340 391 16,000 1,680 Climbing Seattle Center
11:28AM 45.3786 -122.3808 126° Southeast 363 418 17,600 1,320 Climbing Seattle Center
11:29AM 45.2933 -122.2861 142° Southeast 393 452 18,800 1,260 Climbing Seattle Center
11:30AM 45.1917 -122.2164 154° Southeast 402 463 20,200 1,500 Climbing Seattle Center
11:31AM 45.0878 -122.1472 155° Southeast 408 470 21,900 1,560 Climbing Seattle Center
11:32AM 44.9800 -122.0750 155° Southeast 419 482 23,400 1,620 Climbing Seattle Center
11:33AM 44.8564 -121.9939 155° Southeast 435 501 25,200 1,680 Climbing Seattle Center
11:34AM 44.7419 -121.9183 155° Southeast 447 514 26,900 1,620 Climbing Seattle Center
11:35AM 44.6150 -121.8350 155° Southeast 456 525 28,600 1,560 Climbing Seattle Center
11:36AM 44.4989 -121.7619 156° South 459 528 30,100 1,380 Climbing Seattle Center
11:37AM 44.3811 -121.6858 155° Southeast 466 536 31,500 1,860 Climbing Seattle Center
11:38AM 44.2608 -121.6086 155° Southeast 473 544 33,900 2,280 Climbing Seattle Center
11:39AM 44.1436 -121.5331 155° Southeast 469 540 36,200 2,040 Climbing Seattle Center
11:40AM 44.0286 -121.4597 155° Southeast 459 528 38,100 1,800 Climbing Seattle Center
11:41AM 43.9158 -121.3883 155° Southeast 449 517 39,900 1,320 Climbing Seattle Center
11:42AM 43.7908 -121.3103 156° South 454 522 40,900 540 Climbing Seattle Center
11:43AM 43.6739 -121.2378 156° South 459 528 41,000  Climbing Seattle Center
11:44AM 43.5500 -121.1581 155° Southeast 484 557 41,000  Level Seattle Center
11:45AM 43.4247 -121.0800 156° South 493 567 41,000  Level Seattle Center
11:46AM 43.2972 -120.9994 155° Southeast 501 577 41,000  Level Seattle Center
11:47AM 43.1706 -120.9244 157° South 499 574 41,000  Level Seattle Center
11:48AM 43.0422 -120.8428 155° Southeast 504 580 41,000  Level Seattle Center
11:49AM 42.9142 -120.7644 156° South 505 581 41,000  Level Seattle Center
11:50AM 42.7814 -120.7222 167° South 494 568 41,000  Level Seattle Center
11:51AM 42.6228 -120.7022 175° South 479 551 41,000  Level Seattle Center
11:52AM 42.4881 -120.6867 175° South 483 556 41,000  Level Seattle Center
11:53AM 42.3528 -120.6694 175° South 488 562 41,000  Level Seattle Center
11:54AM 42.2169 -120.6528 175° South 489 563 41,000  Level Seattle Center
11:55AM 42.0808 -120.6369 175° South 490 564 41,000  Level Seattle Center
11:56AM 41.9472 -120.6203 175° South 482 555 41,000  Level Seattle Center
11:57AM 41.8108 -120.6050 175° South 488 562 41,000  Level Seattle Center
11:58AM 41.6758 -120.5889 175° South 486 559 41,000  Level Seattle Center
11:59AM 41.5425 -120.5719 175° South 481 554 41,000  Level Seattle Center
12:00PM 41.4083 -120.5556 175° South 484 557 41,000  Level Seattle Center
12:01PM 41.2750 -120.5400 175° South 481 554 41,000  Level Seattle Center
12:02PM 41.1428 -120.5242 175° South 477 549 41,000  Level Seattle Center
12:03PM 41.0100 -120.5072 174° South 478 550 41,000  Level Seattle Center
12:04PM 40.8514 -120.4892 175° South 479 551 41,000  Level Seattle Center
12:05PM 40.7186 -120.4744 175° South 478 550 41,000  Level Seattle Center
12:06PM 40.5889 -120.4567 174° South 471 542 41,000  Level Seattle Center
12:07PM 40.4517 -120.4414 175° South 459 528 41,000  Level Oakland Center
12:08PM 40.3297 -120.4261 175° South 473 544 41,000  Level Seattle Center
12:09PM 40.1894 -120.4122 176° South 473 544 41,000  Level Oakland Center
12:10PM 40.0581 -120.3964 175° South 474 545 41,000  Level Oakland Center
12:11PM 39.9328 -120.3811 175° South 471 542 41,000  Level Oakland Center
12:12PM 39.8022 -120.3661 175° South 470 541 41,000  Level Oakland Center
12:13PM 39.6450 -120.3489 175° South 471 542 41,000  Level Oakland Center
12:14PM 39.5125 -120.3339 175° South 474 545 41,000  Level Oakland Center
12:15PM 39.3803 -120.3186 175° South 475 547 41,000  Level Oakland Center
12:16PM 39.2483 -120.3039 175° South 475 547 41,000  Level Oakland Center
12:17PM 39.1161 -120.2881 175° South 473 544 41,000  Level Oakland Center
12:18PM 38.9833 -120.2739 175° South 475 547 41,000  Level Oakland Center
12:20PM 38.8517 -120.2589 175° South 474 545 41,000  Level Oakland Center
12:21PM 38.7192 -120.2447 175° South 474 545 41,000  Level Oakland Center
12:22PM 38.5875 -120.2300 175° South 473 544 41,000  Level Oakland Center
12:23PM 38.4561 -120.2158 175° South 471 542 41,000  Level Oakland Center
12:24PM 38.3247 -120.2006 175° South 472 543 41,000  Level Oakland Center
12:25PM 38.1950 -120.1881 176° South 467 537 41,000  Level Oakland Center
12:26PM 38.0372 -120.1706 175° South 471 542 41,000  Level Oakland Center
12:27PM 37.9058 -120.1564 175° South 472 543 41,000  Level Oakland Center
12:28PM 37.7750 -120.1414 175° South 472 543 41,000  Level Oakland Center
12:29PM 37.6442 -120.1281 175° South 472 543 41,000  Level Oakland Center
12:30PM 37.5125 -120.1128 175° South 473 544 41,000  Level Oakland Center
12:31PM 37.3800 -120.0992 175° South 475 547 41,000  Level Oakland Center
12:32PM 37.2475 -120.0861 176° South 477 549 41,000  Level Oakland Center
12:33PM 37.1153 -120.0656 173° South 478 550 41,000  Level Oakland Center
12:34PM 36.9636 -120.0275 169° South 482 555 41,000  Level Oakland Center
12:35PM 36.8319 -119.9975 170° South 481 554 41,000  Level Oakland Center
12:36PM 36.7014 -119.9700 170° South 477 549 41,000  Level Oakland Center
12:37PM 36.5697 -119.9392 169° South 480 552 41,000  Level Oakland Center
12:38PM 36.4381 -119.9083 169° South 480 552 41,000  Level Oakland Center
12:39PM 36.3069 -119.8786 170° South 479 551 41,000  Level Oakland Center
12:40PM 36.1742 -119.8494 170° South 482 555 41,000  Level Oakland Center
12:41PM 36.0428 -119.8175 169° South 481 554 41,000  Level Oakland Center
12:42PM 35.9094 -119.7883 170° South 483 556 41,000  Level Oakland Center
12:43PM 35.7508 -119.7519 169° South 481 554 41,000  Level Oakland Center
12:44PM 35.6161 -119.7208 169° South 486 559 41,000  Level Oakland Center
12:45PM 35.5389 -119.7039 170° South 479 551 41,000  Level Los Angeles Center
12:46PM 35.4081 -119.6747 170° South 474 545 41,000 -60 Level Los Angeles Center
12:47PM 35.2789 -119.6433 169° South 471 542 40,900  Descending Los Angeles Center
12:48PM 35.1622 -119.5617 150° Southeast 482 555 41,000 -780 Climbing Los Angeles Center
12:49PM 35.0583 -119.4722 145° Southeast 464 534 39,300 -2,040 Descending Los Angeles Center
12:50PM 34.9519 -119.3828 145° Southeast 463 533 36,800 -2,700 Descending Los Angeles Center
12:51PM 34.7997 -119.2506 144° Southeast 479 551 33,200 -2,760 Descending Los Angeles Center
12:52PM 34.6886 -119.1581 146° Southeast 482 555 30,600 -2,520 Descending Los Angeles Center
12:53PM 34.5769 -119.0678 146° Southeast 491 565 28,100 -2,520 Descending Los Angeles Center
12:54PM 34.4653 -118.9736 145° Southeast 490 564 25,400 -2,520 Descending Los Angeles Center
12:55PM 34.3547 -118.8833 146° Southeast 481 554 22,900 -2,580 Descending Los Angeles Center
12:56PM 34.2147 -118.8283 162° South 439 505 20,100 -2,520 Descending Los Angeles Center
12:57PM 34.0969 -118.7858 163° South 441 507 17,700 -2,280 Descending Los Angeles Center
12:58PM 33.9825 -118.7439 163° South 426 490 15,400 -1,800 Descending Los Angeles Center
12:59PM 33.8658 -118.7028 164° South 404 465 14,000 -720 Descending Los Angeles Center
01:00PM 33.7697 -118.6675 163° South 405 466 14,000 -480 Level Los Angeles Center
01:01PM 33.6439 -118.6233 164° South 384 442 13,100 -1,500 Descending Los Angeles Center
01:02PM 33.5597 -118.5783 156° South 338 389 10,900 -2,040 Descending Los Angeles Center
01:04PM 33.5092 -118.4981 127° Southeast 313 360 8,900 -2,160 Descending Los Angeles Center
01:05PM 33.4672 -118.4153 121° Southeast 300 345 6,500 -1,920 Descending Los Angeles Center
01:06PM 33.4639 -118.3217 92° East 288 331 5,000 -780 Descending Los Angeles Center
01:07PM 33.5156 -118.2331 55° Northeast 283 326 5,000  Level Los Angeles Center
01:08PM 33.5569 -118.1592 56° Northeast 276 318 5,000  Level Los Angeles Center
01:09PM 33.5997 -118.0869 55° Northeast 272 313 5,000  Level Los Angeles Center
01:09PM 33.6333 -118.0333 53° Northeast 267 307 5,000  Level Southern California TRACON
01:11PM 33.7000 -117.9667 40° Northeast 227 261 5,000  Level Southern California TRACON
01:12PM 33.7500 -117.9167 40° Northeast 231 266 5,000 -660 Level Southern California TRACON
01:13PM 33.8000 -117.8667 40° Northeast 239 275 3,700 -1,020 Descending Southern California TRACON
01:14PM 33.8500 -117.8167 40° Northeast 225 259 3,000 -420 Descending Southern California TRACON
01:14PM 33.8500 -117.7667 90° East 199 229 3,000 -60 Level Southern California TRACON
01:16PM 33.8000 -117.7833 195° South 148 170 2,900 -480 Descending Southern California TRACON
01:17PM 33.7667 -117.8000 203° Southwest 143 165 2,100 -780 Descending Southern California TRACON
01:18PM 33.7333 -117.8333 220° Southwest 140 161 1,400 -720 Descending Southern California TRACON
01:19PM 33.7000 -117.8500 203° Southwest 145 167 700 -720 Descending Southern California TRACON